Aeroporto :
LOGIN :

Iscrizione | Disclaimer

   EN    FR    IT 

 










Sommario :    VFR   VFR Marginale   IFR   IFR Intensivo   IFR Molto Intensivo
Visibilità : 
Base nubi : 
>= 8 km
>= 3000ft
5 / 8 km
1000 / 3000 ft
1500m / 5 km
500 / 1000 ft
800 / 1500m
200 / 500 ft
< 800m
< 200 ft
Simboli :   Temporali  Nebbia  Neve Forte  Precipitazioni Forti  Vento > 20 kt
SIGMETs :   Varie  Temporali  Ghiacco  Turbolenza  Onda orograficha  Ceneri Vulcaniche






- Altitudine del aeroporto : 510 ft


LJCE - Cerklje

ULTIMO METAR :
  • 281000Z 30013KT 270V350 CAVOK 11/M04 Q1013 RMK BLU

METARs OBSOLETI :
  • 280930Z 31010G21KT 270V020 CAVOK 11/M05 Q1012 RMK BLU
  • 280900Z 31012G22KT 260V030 CAVOK 10/M05 Q1012 RMK BLU
  • 280830Z 32008KT 280V030 CAVOK 09/M03 Q1011 RMK BLU
  • 280800Z 25006KT 210V300 CAVOK 08/01 Q1011 R09/CLRD// RMK BLU
  • 280730Z 24005KT CAVOK 05/02 Q1011 R09/CLRD// RMK BLU

TAF TAF LJCE
Valido dal 28 a 09 ore il 28 a 18 ore UTC


280800Z 2809/2818 25005KT CAVOK
TEMPO 2809/2814 30010G25KT



MetMap, La meteo Aeronautica in un colpo d'occhio ! - Copyright ORBIFLY Dicembre 2007 - Disclaimer

ORBIFLY MET'MAP TEAM :

Programmazione e sviluppo : Alexandra Zaïnal
Concezione : Baudouin d'Aumeries
Aiuto per la programmazione : Marc-Olivier Méhu
Supporto tecnico e logistico : Manuel Goepfert
Aiuto per la traduzione : Arnaldo La Scala

Contatto : metmap@orbifly.com




FONTI E CREDITI :

   NOAA